Startpagina
METAR-TAF:

METAR-TAF

Vliegvelden :

El Goléa, Algerije

breedte: 30-34N, lengte: 002-52E, hoogte: 397 m

Actueel weer

Dit bericht is 52 minuten geleden gemaakt, om 02:00 UTC
Wind 18 kt uit het noorden
Temperatuur 25°C
Vochtigheid 41%
Druk 1008 hPa
Zicht: 5000 m
Verspreide wolken op 4000 ft
Lage stuifzand

METAR: DAUE 250200Z 01018KT 5000 DRSA SCT040 25/11 Q1008

Tijdstip: 03:52 (02:52 UTC)


TAF: ontbreekt

Waarnemingen en weersverwachtingen van meer dan 4000 vliegvelden (METAR en TAF).

De beschikbare stations zijn de gele en rode punten op de kaart.

Ga met uw muis naar het station om de naam te zien.

Klik dan om waarnemingen en weersverwachtingen te zien.

kaart wijzigen: klik op de groene knoppen met een zwart kruis om in te zoomen, op de groene knop met een streepje om uit te zoomen of op de groene pijlen voor aangrenzende kaarten.


METAR-TAF: